Time;durP1;ratioP1;P1;durP2;ratioP2;P2;SDS_P1;SDS_P2;PMS_P1;PMS_P2;Temp;Humidity;BMP_temperature;BMP_pressure;BME280_temperature;BME280_humidity;BME280_pressure;Samples;Min_cycle;Max_cycle;Signal;HPM_P1;HPM_P2
2022/06/16 00:01:46;;;;;;;7.15;4.68;;;15.70;95.40;;;;;;4997436;28;20509;-77
2022/06/16 00:04:12;;;;;;;7.97;4.75;;;15.70;95.50;;;;;;4970737;28;20030;-77
2022/06/16 00:06:38;;;;;;;8.95;4.30;;;15.70;95.60;;;;;;5010005;28;20113;-77
2022/06/16 00:09:05;;;;;;;9.85;4.47;;;15.70;95.70;;;;;;4988500;28;20046;-78
2022/06/16 00:11:32;;;;;;;7.95;4.57;;;15.70;95.80;;;;;;5003399;28;20033;-77
2022/06/16 00:14:00;;;;;;;8.23;4.13;;;15.60;95.90;;;;;;4982015;28;20046;-77
2022/06/16 00:16:26;;;;;;;8.63;4.40;;;15.60;96.10;;;;;;4978712;28;20038;-78
2022/06/16 00:18:51;;;;;;;7.90;4.40;;;15.60;96.20;;;;;;4976743;28;20046;-77
2022/06/16 00:21:17;;;;;;;7.90;4.07;;;15.60;96.40;;;;;;5009259;28;20045;-77
2022/06/16 00:23:44;;;;;;;7.13;4.20;;;15.60;96.50;;;;;;4988801;28;20045;-77
2022/06/16 00:26:15;;;;;;;9.43;4.28;;;15.60;96.70;;;;;;4982148;28;20041;-77
2022/06/16 00:28:41;;;;;;;9.87;4.63;;;15.60;96.80;;;;;;4981036;28;20372;-77
2022/06/16 00:31:10;;;;;;;6.70;4.10;;;15.60;96.90;;;;;;4975091;28;20045;-77
2022/06/16 00:33:37;;;;;;;9.40;4.15;;;15.60;97.00;;;;;;4984249;28;20121;-77
2022/06/16 00:36:03;;;;;;;6.90;3.78;;;15.50;97.10;;;;;;5006545;28;20076;-76
2022/06/16 00:38:30;;;;;;;8.13;3.92;;;15.50;97.30;;;;;;4994044;28;20077;-77
2022/06/16 00:40:56;;;;;;;7.78;4.00;;;15.50;97.40;;;;;;4983418;28;20118;-77
2022/06/16 00:43:22;;;;;;;9.50;4.30;;;15.50;97.70;;;;;;5011501;28;20051;-77
2022/06/16 00:45:56;;;;;;;9.90;4.88;;;15.50;97.60;;;;;;4992961;28;20034;-77
2022/06/16 00:48:35;;;;;;;6.40;4.20;;;15.50;97.70;;;;;;4965797;28;20121;-77
2022/06/16 00:51:05;;;;;;;9.18;4.65;;;15.50;97.90;;;;;;5001974;28;20053;-77
2022/06/16 00:53:32;;;;;;;6.10;4.25;;;15.50;98.10;;;;;;4967122;28;20037;-77
2022/06/16 00:55:58;;;;;;;9.52;4.50;;;15.40;98.10;;;;;;4991848;28;20046;-77
2022/06/16 00:58:26;;;;;;;11.60;4.22;;;15.40;98.40;;;;;;4987761;28;20463;-77
2022/06/16 01:00:52;;;;;;;7.35;4.03;;;15.30;98.50;;;;;;4980111;28;20038;-77
2022/06/16 01:04:51;;;;;;;6.82;4.22;;;15.40;98.60;;;;;;4970365;28;20115;-77
2022/06/16 01:06:19;;;;;;;9.50;4.70;;;15.30;98.70;;;;;;5007313;28;21094;-77
2022/06/16 01:08:46;;;;;;;8.18;4.93;;;15.30;99.00;;;;;;4972894;28;20038;-77
2022/06/16 01:13:41;;;;;;;7.18;4.30;;;15.40;99.00;;;;;;4993165;28;20034;-77
2022/06/16 01:14:31;;;;;;;8.45;4.13;;;15.40;99.10;;;;;;5010768;28;20054;-77
2022/06/16 01:17:03;;;;;;;11.17;4.57;;;15.40;99.30;;;;;;4987032;28;20034;-77
2022/06/16 01:19:56;;;;;;;8.57;4.30;;;15.30;99.30;;;;;;4985601;28;20301;-77
2022/06/16 01:23:00;;;;;;;8.95;4.00;;;15.30;99.40;;;;;;4960959;28;20508;-77
2022/06/16 01:25:35;;;;;;;8.55;4.15;;;15.30;99.60;;;;;;4996247;28;20042;-77
2022/06/16 01:28:29;;;;;;;8.45;4.10;;;15.20;99.70;;;;;;4965624;28;20494;-77
2022/06/16 01:31:11;;;;;;;10.30;4.20;;;15.20;99.90;;;;;;4997121;28;20034;-78
2022/06/16 01:33:46;;;;;;;9.05;4.35;;;15.10;99.90;;;;;;4987542;28;20042;-78
2022/06/16 01:36:35;;;;;;;8.50;4.30;;;15.10;99.90;;;;;;4982347;28;20038;-78
2022/06/16 01:39:06;;;;;;;9.48;4.47;;;15.00;99.90;;;;;;5000159;28;20044;-77
2022/06/16 01:41:43;;;;;;;10.80;4.20;;;15.00;99.90;;;;;;4978041;28;20371;-77
2022/06/16 01:44:15;;;;;;;9.48;4.32;;;15.00;99.90;;;;;;4976399;28;20084;-78
2022/06/16 01:46:46;;;;;;;8.75;4.60;;;14.90;99.90;;;;;;4983152;28;20050;-77
2022/06/16 01:49:24;;;;;;;8.70;4.13;;;15.80;99.90;;;;;;4988163;28;20030;-78
2022/06/16 01:51:58;;;;;;;8.73;4.22;;;14.90;99.90;;;;;;5009999;28;20117;-78
2022/06/16 01:54:34;;;;;;;7.18;4.10;;;14.90;99.90;;;;;;4991113;28;20042;-78
2022/06/16 01:57:10;;;;;;;8.32;4.40;;;14.80;99.90;;;;;;4980988;28;20034;-78
2022/06/16 02:00:02;;;;;;;9.82;4.95;;;14.80;99.90;;;;;;4970460;28;20100;-77
2022/06/16 02:02:32;;;;;;;8.60;4.40;;;14.80;99.90;;;;;;4983648;28;20481;-77
2022/06/16 02:05:17;;;;;;;8.65;4.50;;;14.80;99.90;;;;;;4989319;28;20650;-78
2022/06/16 02:08:15;;;;;;;7.53;4.60;;;14.70;99.90;;;;;;4968742;28;20034;-78
2022/06/16 02:10:44;;;;;;;8.32;4.55;;;14.70;99.90;;;;;;4984246;28;20389;-78
2022/06/16 02:13:13;;;;;;;8.07;4.85;;;14.70;99.90;;;;;;4991641;28;20442;-78
2022/06/16 02:16:24;;;;;;;9.52;4.82;;;14.70;99.90;;;;;;4991698;28;20443;-78
2022/06/16 02:18:54;;;;;;;6.43;4.70;;;14.60;99.90;;;;;;4963555;28;20085;-77
2022/06/16 02:21:23;;;;;;;9.60;4.80;;;14.60;99.90;;;;;;5010788;28;20042;-78
2022/06/16 02:23:51;;;;;;;10.65;4.97;;;14.60;99.90;;;;;;4989561;28;20046;-78
2022/06/16 02:26:17;;;;;;;9.32;4.78;;;14.60;99.90;;;;;;4982567;28;20173;-77
2022/06/16 02:28:48;;;;;;;11.40;4.88;;;14.60;99.90;;;;;;4967028;28;20504;-78
2022/06/16 02:31:38;;;;;;;7.85;5.00;;;14.50;99.90;;;;;;5011214;28;20030;-77
2022/06/16 02:34:24;;;;;;;7.78;5.60;;;14.40;99.90;;;;;;4991748;28;20054;-76
2022/06/16 02:37:00;;;;;;;9.90;5.28;;;14.40;99.90;;;;;;4970885;28;20038;-77
2022/06/16 02:39:31;;;;;;;8.10;5.20;;;14.30;99.90;;;;;;4964018;28;20049;-77
2022/06/16 02:42:23;;;;;;;7.85;5.03;;;14.20;99.90;;;;;;4973364;28;20042;-78
2022/06/16 02:45:12;;;;;;;9.40;5.38;;;14.10;99.90;;;;;;4990777;28;20057;-76
2022/06/16 02:48:12;;;;;;;10.15;5.75;;;14.10;99.90;;;;;;4987909;28;20410;-77
2022/06/16 02:51:03;;;;;;;11.00;5.30;;;14.10;99.90;;;;;;4986921;28;20042;-77
2022/06/16 02:54:10;;;;;;;7.80;5.40;;;14.00;99.90;;;;;;4999364;28;20042;-77
2022/06/16 02:57:34;;;;;;;9.27;4.93;;;14.00;99.90;;;;;;4958363;28;20050;-77
2022/06/16 03:00:14;;;;;;;9.32;5.35;;;14.00;99.90;;;;;;4907399;29;20127;-77
2022/06/16 03:02:41;;;;;;;9.77;5.25;;;13.90;99.90;;;;;;4993373;28;20042;-78
2022/06/16 03:05:08;;;;;;;9.95;5.40;;;14.10;99.90;;;;;;4972339;28;20057;-78
2022/06/16 03:07:35;;;;;;;10.00;4.85;;;13.80;99.90;;;;;;4976165;28;20098;-78
2022/06/16 03:10:03;;;;;;;7.38;4.85;;;14.10;99.90;;;;;;5006547;28;20046;-78
2022/06/16 03:12:28;;;;;;;8.70;4.95;;;13.70;99.90;;;;;;5010849;28;20100;-77
2022/06/16 03:14:54;;;;;;;9.80;4.80;;;13.60;99.90;;;;;;4997332;28;20510;-78
2022/06/16 03:17:20;;;;;;;8.23;4.82;;;14.00;99.90;;;;;;4983050;28;20044;-78
2022/06/16 03:19:45;;;;;;;8.00;4.95;;;14.00;99.90;;;;;;5014083;28;20037;-78
2022/06/16 03:22:11;;;;;;;9.05;5.03;;;13.60;99.90;;;;;;4989850;28;20064;-78
2022/06/16 03:24:37;;;;;;;9.35;5.15;;;13.60;99.90;;;;;;4969080;28;20413;-77
2022/06/16 03:27:06;;;;;;;8.85;5.05;;;13.50;99.90;;;;;;5016081;28;20088;-78
2022/06/16 03:29:32;;;;;;;9.00;5.20;;;13.50;99.90;;;;;;5007326;28;20040;-78
2022/06/16 03:31:58;;;;;;;7.18;4.53;;;13.40;99.90;;;;;;5015438;28;20030;-78
2022/06/16 03:34:25;;;;;;;9.93;4.90;;;13.60;99.90;;;;;;5004949;28;20030;-77
2022/06/16 03:36:52;;;;;;;12.48;4.72;;;13.40;99.90;;;;;;4974585;28;20038;-77
2022/06/16 03:39:17;;;;;;;8.85;4.68;;;13.60;99.90;;;;;;4993677;28;20109;-77
2022/06/16 03:41:44;;;;;;;9.18;4.43;;;13.30;99.90;;;;;;4993342;28;20121;-77
2022/06/16 03:44:10;;;;;;;6.05;3.92;;;13.30;99.90;;;;;;4972597;28;20068;-78
2022/06/16 03:46:36;;;;;;;7.95;4.45;;;13.60;99.90;;;;;;4987314;28;20131;-78
2022/06/16 03:49:03;;;;;;;7.53;4.47;;;13.50;99.90;;;;;;4979829;28;20538;-78
2022/06/16 03:51:29;;;;;;;6.45;4.30;;;13.10;99.90;;;;;;5015185;28;20045;-78
2022/06/16 03:53:55;;;;;;;6.55;4.63;;;13.00;99.90;;;;;;4993268;28;20113;-78
2022/06/16 03:56:21;;;;;;;6.68;4.75;;;13.00;99.90;;;;;;4991723;28;20049;-77
2022/06/16 03:58:53;;;;;;;8.70;5.65;;;13.00;99.90;;;;;;4970537;28;20443;-78
2022/06/16 04:01:19;;;;;;;9.15;4.75;;;13.30;99.90;;;;;;4985313;28;20070;-77
2022/06/16 04:04:00;;;;;;;8.18;4.43;;;13.00;99.90;;;;;;5003044;28;20685;-78
2022/06/16 04:06:31;;;;;;;7.93;4.20;;;12.90;99.90;;;;;;4972173;28;20073;-78
2022/06/16 04:08:57;;;;;;;7.03;4.72;;;13.00;99.90;;;;;;4968453;28;20038;-78
2022/06/16 04:11:30;;;;;;;7.63;4.50;;;13.20;99.90;;;;;;5001226;28;20038;-78
2022/06/16 04:14:02;;;;;;;8.23;4.85;;;13.10;99.90;;;;;;4986458;28;20039;-78
2022/06/16 04:16:34;;;;;;;7.63;4.28;;;13.10;99.90;;;;;;4996241;28;20053;-78
2022/06/16 04:19:00;;;;;;;6.65;4.28;;;13.20;99.90;;;;;;4989116;28;20076;-77
2022/06/16 04:21:28;;;;;;;9.20;4.72;;;13.20;99.90;;;;;;4988463;28;20030;-78
2022/06/16 04:23:55;;;;;;;7.38;4.75;;;13.20;99.90;;;;;;4982419;28;20042;-78
2022/06/16 04:26:21;;;;;;;9.55;4.70;;;13.90;99.90;;;;;;4983930;28;20035;-78
2022/06/16 04:28:47;;;;;;;8.05;4.50;;;13.40;99.90;;;;;;4987665;28;20044;-78
2022/06/16 04:31:13;;;;;;;9.05;5.05;;;13.40;99.90;;;;;;4988363;28;20040;-78
2022/06/16 04:33:39;;;;;;;10.27;5.18;;;13.50;99.90;;;;;;4975625;28;20049;-78
2022/06/16 04:36:06;;;;;;;9.15;5.15;;;13.50;99.90;;;;;;4991491;28;20589;-78
2022/06/16 04:38:32;;;;;;;10.75;5.40;;;13.60;99.90;;;;;;4971928;28;20038;-79
2022/06/16 04:41:00;;;;;;;7.57;5.40;;;13.90;99.90;;;;;;4976709;28;20406;-79
2022/06/16 04:43:26;;;;;;;8.77;5.53;;;13.70;99.90;;;;;;5004107;28;20034;-78
2022/06/16 04:45:52;;;;;;;10.50;5.25;;;14.30;99.90;;;;;;4995497;28;20038;-79
2022/06/16 04:48:17;;;;;;;9.80;5.45;;;13.80;99.90;;;;;;4994842;28;20176;-78
2022/06/16 04:50:43;;;;;;;9.05;6.10;;;13.80;99.90;;;;;;5003107;28;20034;-78
2022/06/16 04:53:10;;;;;;;7.57;5.60;;;13.90;99.90;;;;;;4993081;28;20057;-78
2022/06/16 04:55:36;;;;;;;8.52;5.35;;;13.90;99.90;;;;;;4986964;28;20518;-78
2022/06/16 04:58:03;;;;;;;7.85;5.57;;;13.80;99.90;;;;;;4979776;28;20039;-78
2022/06/16 05:00:29;;;;;;;9.02;5.13;;;13.90;99.90;;;;;;4970133;28;20048;-78
2022/06/16 05:02:56;;;;;;;9.73;5.70;;;14.30;99.90;;;;;;5005970;28;20499;-77
2022/06/16 05:05:22;;;;;;;10.85;5.30;;;13.90;99.90;;;;;;4999533;28;20061;-79
2022/06/16 05:07:50;;;;;;;8.65;5.43;;;14.10;99.90;;;;;;4991767;28;20498;-78
2022/06/16 05:10:17;;;;;;;9.07;5.60;;;14.00;99.90;;;;;;4985769;28;20026;-78
2022/06/16 05:12:43;;;;;;;9.65;6.05;;;14.00;99.90;;;;;;4987474;28;20047;-78
2022/06/16 05:15:09;;;;;;;13.07;6.35;;;14.10;99.90;;;;;;4985126;28;20033;-78
2022/06/16 05:17:35;;;;;;;9.90;5.80;;;14.20;99.90;;;;;;4977978;28;20409;-78
2022/06/16 05:20:02;;;;;;;8.57;5.53;;;14.20;99.90;;;;;;4994646;28;20042;-78
2022/06/16 05:22:28;;;;;;;8.43;5.80;;;14.30;99.90;;;;;;4986602;28;20537;-78
2022/06/16 05:24:54;;;;;;;9.10;6.20;;;14.40;99.90;;;;;;4972009;28;20099;-78
2022/06/16 05:27:22;;;;;;;10.70;6.32;;;14.40;99.90;;;;;;4962007;28;20034;-78
2022/06/16 05:29:48;;;;;;;11.85;6.18;;;14.50;99.90;;;;;;4993329;28;20034;-79
2022/06/16 05:32:14;;;;;;;10.70;5.72;;;14.60;99.90;;;;;;4994710;28;20100;-78
2022/06/16 05:34:44;;;;;;;8.63;5.95;;;14.70;99.90;;;;;;4970624;28;20515;-78
2022/06/16 05:37:10;;;;;;;8.20;5.43;;;14.70;99.90;;;;;;4978067;28;20105;-78
2022/06/16 05:39:35;;;;;;;10.77;5.93;;;14.70;99.90;;;;;;4987418;28;20096;-78
2022/06/16 05:42:02;;;;;;;10.27;5.93;;;14.60;99.90;;;;;;4978805;28;20040;-78
2022/06/16 05:44:28;;;;;;;9.65;5.80;;;14.70;99.90;;;;;;4991232;28;20030;-78
2022/06/16 05:46:54;;;;;;;12.25;5.75;;;14.70;99.90;;;;;;4988139;28;20041;-78
2022/06/16 05:49:21;;;;;;;7.95;5.45;;;14.90;99.90;;;;;;4976285;28;20060;-79
2022/06/16 05:51:47;;;;;;;11.65;6.22;;;14.70;99.90;;;;;;4990421;28;20034;-79
2022/06/16 05:54:13;;;;;;;9.52;5.35;;;14.70;99.90;;;;;;4978231;28;20042;-79
2022/06/16 05:56:39;;;;;;;10.90;5.70;;;14.80;99.90;;;;;;4973386;28;20125;-79
2022/06/16 05:59:05;;;;;;;11.18;6.28;;;14.80;99.90;;;;;;4979138;28;20034;-79
2022/06/16 06:01:31;;;;;;;7.72;5.20;;;14.90;99.90;;;;;;4976444;28;20049;-78
2022/06/16 06:03:59;;;;;;;8.55;5.20;;;15.20;99.90;;;;;;4986915;28;20109;-78
2022/06/16 06:06:25;;;;;;;10.45;5.60;;;15.00;99.90;;;;;;4979263;28;20037;-79
2022/06/16 06:17:12;;;;;;;8.73;4.25;;;14.90;99.90;;;;;;4994228;28;20042;-79
2022/06/16 06:19:38;;;;;;;9.73;4.85;;;15.00;99.90;;;;;;4978637;28;20044;-79
2022/06/16 06:22:13;;;;;;;9.43;4.53;;;15.30;99.90;;;;;;5011371;28;20069;-79
2022/06/16 06:24:40;;;;;;;8.38;3.67;;;15.00;99.90;;;;;;4990323;28;20057;-79
2022/06/16 06:27:20;;;;;;;9.10;3.60;;;15.10;99.90;;;;;;5006347;28;20080;-79
2022/06/16 06:29:48;;;;;;;6.55;2.97;;;15.10;99.90;;;;;;4999276;28;20069;-78
2022/06/16 06:32:16;;;;;;;5.30;2.83;;;15.00;99.90;;;;;;5011220;28;20469;-78
2022/06/16 06:34:42;;;;;;;4.97;2.75;;;15.00;99.90;;;;;;4992337;28;20502;-78
2022/06/16 06:37:09;;;;;;;5.30;2.70;;;15.10;99.90;;;;;;5008321;28;20034;-78
2022/06/16 06:39:35;;;;;;;7.18;3.40;;;15.30;99.90;;;;;;4967238;28;20041;-78
2022/06/16 06:42:04;;;;;;;8.38;2.97;;;15.10;99.90;;;;;;5010412;28;20522;-78
2022/06/16 06:44:30;;;;;;;6.78;2.67;;;15.10;99.90;;;;;;4977088;28;20037;-77
2022/06/16 06:46:56;;;;;;;7.82;3.10;;;15.10;99.90;;;;;;5010783;28;20576;-77
2022/06/16 06:49:22;;;;;;;6.28;3.35;;;15.10;99.90;;;;;;4990595;28;20030;-79
2022/06/16 06:51:48;;;;;;;6.15;3.47;;;15.10;99.90;;;;;;4987971;28;20032;-78
2022/06/16 06:54:14;;;;;;;6.72;3.13;;;15.60;99.90;;;;;;4975638;28;20089;-77
2022/06/16 06:56:40;;;;;;;4.85;2.67;;;15.20;99.90;;;;;;5014386;28;20044;-77
2022/06/16 06:59:09;;;;;;;5.05;2.50;;;15.20;99.90;;;;;;5012927;28;20395;-77
2022/06/16 07:01:35;;;;;;;5.05;2.08;;;15.30;99.90;;;;;;4996514;28;20048;-78
2022/06/16 07:04:02;;;;;;;7.20;2.30;;;15.30;99.90;;;;;;4982634;28;20038;-77
2022/06/16 07:06:28;;;;;;;5.97;2.40;;;15.30;99.90;;;;;;4985570;28;20097;-77
2022/06/16 07:08:54;;;;;;;8.63;2.42;;;15.30;99.90;;;;;;4994826;28;20046;-77
2022/06/16 07:11:20;;;;;;;5.70;2.38;;;15.30;99.90;;;;;;5011049;28;20117;-77
2022/06/16 07:13:45;;;;;;;7.50;2.47;;;15.40;99.90;;;;;;4972996;28;20045;-77
2022/06/16 07:16:11;;;;;;;3.95;2.00;;;15.40;99.90;;;;;;4977785;28;20045;-78
2022/06/16 07:18:38;;;;;;;4.53;2.00;;;15.50;99.90;;;;;;4988886;28;20449;-78
2022/06/16 07:21:04;;;;;;;4.47;2.05;;;15.50;99.90;;;;;;5008244;28;20034;-77
2022/06/16 07:23:30;;;;;;;4.20;2.00;;;15.50;99.90;;;;;;4991933;28;20526;-78
2022/06/16 07:25:56;;;;;;;5.13;2.40;;;15.60;99.90;;;;;;4994412;28;20062;-78
2022/06/16 07:28:22;;;;;;;4.03;1.90;;;15.60;99.90;;;;;;5010746;28;20034;-77
2022/06/16 07:30:48;;;;;;;6.70;2.10;;;15.70;99.90;;;;;;5013804;28;20538;-78
2022/06/16 07:33:13;;;;;;;4.78;1.80;;;15.60;99.90;;;;;;5011500;28;20073;-77
2022/06/16 07:35:43;;;;;;;4.70;2.25;;;15.80;99.90;;;;;;5002046;28;20111;-78
2022/06/16 07:38:10;;;;;;;5.65;1.92;;;15.80;99.90;;;;;;5008239;28;20158;-78
2022/06/16 07:40:37;;;;;;;3.58;1.80;;;15.80;99.90;;;;;;4977949;28;20038;-78
2022/06/16 07:43:03;;;;;;;4.30;1.95;;;15.90;99.90;;;;;;5004574;28;20045;-77
2022/06/16 07:45:29;;;;;;;7.03;1.90;;;16.10;99.90;;;;;;4985647;28;20042;-77
2022/06/16 07:47:57;;;;;;;6.15;2.63;;;16.00;99.90;;;;;;5002220;28;20034;-76
2022/06/16 07:50:24;;;;;;;4.75;1.95;;;16.00;99.90;;;;;;4971619;28;20041;-78
2022/06/16 07:52:50;;;;;;;5.65;2.20;;;16.00;99.90;;;;;;4966189;28;20424;-78
2022/06/16 07:55:18;;;;;;;5.55;2.15;;;16.10;99.90;;;;;;4992716;28;20053;-78
2022/06/16 07:57:48;;;;;;;3.40;1.90;;;16.10;99.90;;;;;;4973310;28;20419;-78
2022/06/16 08:00:21;;;;;;;6.13;1.90;;;16.20;99.90;;;;;;5008950;28;20054;-76
2022/06/16 08:02:47;;;;;;;2.95;1.60;;;16.20;99.90;;;;;;4993243;28;20041;-78
2022/06/16 08:05:13;;;;;;;4.30;1.45;;;16.20;99.90;;;;;;4989563;28;20116;-77
2022/06/16 08:07:41;;;;;;;4.20;1.70;;;16.40;99.90;;;;;;4973616;28;20082;-78
2022/06/16 08:10:09;;;;;;;5.10;1.90;;;16.40;99.90;;;;;;5008474;28;20032;-77
2022/06/16 08:12:37;;;;;;;5.63;1.70;;;16.60;99.90;;;;;;4989377;28;20034;-77
2022/06/16 08:15:03;;;;;;;5.38;2.05;;;16.60;99.90;;;;;;4969615;28;20042;-78
2022/06/16 08:17:32;;;;;;;5.55;1.92;;;16.70;99.90;;;;;;4972254;28;20038;-78
2022/06/16 08:19:58;;;;;;;3.08;1.77;;;16.90;99.90;;;;;;4986049;28;20042;-76
2022/06/16 08:22:25;;;;;;;4.45;1.75;;;17.10;99.90;;;;;;4986429;28;20045;-77
2022/06/16 08:24:51;;;;;;;4.30;1.50;;;17.40;99.90;;;;;;4979134;28;20038;-77
2022/06/16 08:27:20;;;;;;;7.68;1.80;;;17.70;99.90;;;;;;4972801;28;20049;-78
2022/06/16 08:29:46;;;;;;;2.30;1.60;;;18.00;99.90;;;;;;4993429;28;20554;-78
2022/06/16 08:32:14;;;;;;;4.78;1.92;;;18.30;99.90;;;;;;4985434;28;20038;-78
2022/06/16 08:34:40;;;;;;;3.95;2.03;;;18.50;99.90;;;;;;4989292;28;20117;-77
2022/06/16 08:37:05;;;;;;;4.07;1.77;;;18.80;99.40;;;;;;4993758;28;20411;-78
2022/06/16 08:39:31;;;;;;;5.25;1.90;;;19.00;99.10;;;;;;4985492;28;20053;-78
2022/06/16 08:42:09;;;;;;;5.15;2.05;;;19.30;98.70;;;;;;5004517;28;20038;-77
2022/06/16 08:45:00;;;;;;;5.78;1.80;;;19.50;98.00;;;;;;5003099;28;20043;-78
2022/06/16 08:47:38;;;;;;;4.78;1.92;;;19.80;97.90;;;;;;4986128;28;20042;-78
2022/06/16 08:50:24;;;;;;;4.28;2.00;;;20.20;97.40;;;;;;4968210;28;20465;-78
2022/06/16 08:53:06;;;;;;;3.53;2.00;;;20.60;94.90;;;;;;4967158;28;20545;-78
2022/06/16 08:55:54;;;;;;;7.43;2.20;;;20.80;95.30;;;;;;5002494;28;20045;-78
2022/06/16 08:58:44;;;;;;;7.47;2.17;;;21.10;93.30;;;;;;4978926;28;20085;-78
2022/06/16 09:01:15;;;;;;;5.75;1.90;;;21.20;93.30;;;;;;4975707;28;20113;-78
2022/06/16 09:03:57;;;;;;;6.25;2.15;;;21.50;93.30;;;;;;4981237;28;20042;-79
2022/06/16 09:07:08;;;;;;;4.32;2.38;;;21.70;92.00;;;;;;5003163;28;20128;-79
2022/06/16 09:13:02;;;;;;;6.40;2.30;;;22.00;87.10;;;;;;5002045;28;20049;-78
2022/06/16 09:15:48;;;;;;;2.33;1.55;;;22.20;87.30;;;;;;4989844;28;20042;-79
2022/06/16 09:18:40;;;;;;;6.22;2.20;;;22.40;87.20;;;;;;5010458;28;20041;-78
2022/06/16 09:21:27;;;;;;;3.80;2.00;;;22.60;86.20;;;;;;5010206;28;20478;-78
2022/06/16 09:24:17;;;;;;;4.88;2.10;;;22.80;85.10;;;;;;4978478;28;20747;-78
2022/06/16 09:26:52;;;;;;;6.43;2.42;;;22.90;83.40;;;;;;5007283;28;20045;-79
2022/06/16 09:29:21;;;;;;;3.60;2.25;;;23.00;83.90;;;;;;4986376;28;20236;-78
2022/06/16 09:32:05;;;;;;;5.68;2.30;;;22.80;83.90;;;;;;4977366;28;20725;-79
2022/06/16 09:34:45;;;;;;;4.95;2.40;;;22.70;82.40;;;;;;5010784;28;20120;-78
2022/06/16 09:37:18;;;;;;;4.05;2.20;;;22.70;82.00;;;;;;5011893;28;20042;-79
2022/06/16 09:39:50;;;;;;;5.53;2.35;;;22.80;80.90;;;;;;5010082;28;20104;-78
2022/06/16 09:42:42;;;;;;;5.93;2.05;;;22.80;80.10;;;;;;5008999;28;20041;-79
2022/06/16 09:45:14;;;;;;;3.95;2.38;;;22.90;81.80;;;;;;4996261;28;20041;-78
2022/06/16 09:48:03;;;;;;;3.53;2.22;;;23.00;82.70;;;;;;5006155;28;20104;-78
2022/06/16 09:50:53;;;;;;;4.50;2.28;;;23.30;80.10;;;;;;4959377;28;20108;-78
2022/06/16 09:53:53;;;;;;;3.72;2.00;;;23.50;76.90;;;;;;4970546;28;20398;-78
2022/06/16 09:56:26;;;;;;;6.75;2.67;;;23.80;76.00;;;;;;4996996;28;20038;-78
2022/06/16 09:59:10;;;;;;;4.07;2.40;;;24.00;76.80;;;;;;5002583;28;20121;-78
2022/06/16 10:01:43;;;;;;;5.43;2.40;;;24.20;74.40;;;;;;5000067;28;20065;-77
2022/06/16 10:04:08;;;;;;;5.78;2.25;;;24.30;74.70;;;;;;5004898;28;20065;-78
2022/06/16 10:06:37;;;;;;;4.47;2.42;;;24.50;75.20;;;;;;5000558;28;20097;-79
2022/06/16 10:09:22;;;;;;;4.85;2.45;;;24.60;73.60;;;;;;4973071;28;20453;-79
2022/06/16 10:12:11;;;;;;;6.30;3.22;;;24.90;70.30;;;;;;4975416;28;20506;-79
2022/06/16 10:15:00;;;;;;;4.60;2.60;;;25.00;70.00;;;;;;4998235;28;20109;-78
2022/06/16 10:17:27;;;;;;;6.20;2.58;;;25.10;69.00;;;;;;4987283;28;20033;-79
2022/06/16 10:19:55;;;;;;;5.45;2.25;;;25.30;70.20;;;;;;5014414;28;20038;-79
2022/06/16 10:22:23;;;;;;;4.50;2.40;;;25.50;69.20;;;;;;5009412;28;20042;-78
2022/06/16 10:24:53;;;;;;;3.08;1.90;;;25.30;68.60;;;;;;5003568;28;20042;-79
2022/06/16 10:27:21;;;;;;;6.95;2.50;;;25.10;68.70;;;;;;4968534;28;20046;-79
2022/06/16 10:29:53;;;;;;;4.68;2.20;;;24.90;68.90;;;;;;4995361;28;20406;-78
2022/06/16 10:32:19;;;;;;;3.30;2.20;;;24.90;69.10;;;;;;4980725;28;20073;-79
2022/06/16 10:34:51;;;;;;;5.15;2.45;;;25.00;69.50;;;;;;4994473;28;20089;-79
2022/06/16 10:37:29;;;;;;;4.50;2.40;;;25.20;68.40;;;;;;5016707;28;20042;-78
2022/06/16 10:40:03;;;;;;;6.15;2.30;;;25.30;67.40;;;;;;5014886;28;20080;-79
2022/06/16 10:42:33;;;;;;;5.93;2.40;;;25.40;67.00;;;;;;4977414;28;20050;-78
2022/06/16 10:45:05;;;;;;;3.67;2.30;;;25.40;66.60;;;;;;5010347;28;20718;-77
2022/06/16 10:48:00;;;;;;;4.03;2.40;;;25.60;65.80;;;;;;5018344;28;20061;-79
2022/06/16 10:50:42;;;;;;;4.82;1.90;;;25.70;65.30;;;;;;4975464;28;20045;-79
2022/06/16 10:53:37;;;;;;;4.45;2.33;;;25.90;66.10;;;;;;5009181;28;20057;-79
2022/06/16 10:56:17;;;;;;;5.43;2.28;;;26.00;66.00;;;;;;4992668;28;20043;-79
2022/06/16 10:59:17;;;;;;;6.50;2.40;;;26.20;65.10;;;;;;4994938;28;20382;-79
2022/06/16 11:01:50;;;;;;;4.47;2.30;;;26.40;63.50;;;;;;4976368;28;20038;-79
2022/06/16 11:04:22;;;;;;;4.78;2.25;;;26.50;64.20;;;;;;5007425;28;20049;-79
2022/06/16 11:06:52;;;;;;;4.32;2.40;;;26.60;64.30;;;;;;4996922;28;20038;-79
2022/06/16 11:09:21;;;;;;;4.80;2.22;;;26.30;62.30;;;;;;5005655;28;20065;-79
2022/06/16 11:11:53;;;;;;;4.18;2.42;;;26.00;62.80;;;;;;5008089;28;20056;-79
2022/06/16 11:14:35;;;;;;;6.15;2.58;;;25.70;63.70;;;;;;5014841;28;20049;-79
2022/06/16 11:17:09;;;;;;;5.63;2.55;;;25.60;64.70;;;;;;5012719;28;20061;-79
2022/06/16 11:19:41;;;;;;;4.32;2.30;;;25.80;64.70;;;;;;4973617;28;20065;-79
2022/06/16 11:22:30;;;;;;;7.13;2.75;;;26.00;65.20;;;;;;5008210;28;20030;-79
2022/06/16 11:25:05;;;;;;;4.15;2.20;;;26.20;63.40;;;;;;4974346;28;20041;-78
2022/06/16 11:27:40;;;;;;;3.33;2.20;;;26.10;63.50;;;;;;4969575;28;20038;-79
2022/06/16 11:30:30;;;;;;;4.68;2.38;;;26.10;62.70;;;;;;5014529;28;20410;-79
2022/06/16 11:32:56;;;;;;;4.90;2.35;;;25.90;62.20;;;;;;5013141;28;20046;-79
2022/06/16 11:35:53;;;;;;;5.00;2.70;;;25.70;63.50;;;;;;5014726;28;20507;-78
2022/06/16 11:38:33;;;;;;;5.93;2.53;;;25.40;62.40;;;;;;4995293;28;20046;-78
2022/06/16 11:41:07;;;;;;;3.45;2.38;;;25.30;63.50;;;;;;4973253;28;20053;-78
2022/06/16 11:43:54;;;;;;;4.30;2.35;;;25.30;63.50;;;;;;5006876;28;20069;-79
2022/06/16 11:46:45;;;;;;;3.95;2.47;;;25.30;63.90;;;;;;4983339;28;20064;-79
2022/06/16 11:49:32;;;;;;;5.10;2.30;;;25.30;63.90;;;;;;5013993;28;20397;-79
2022/06/16 11:52:03;;;;;;;5.15;2.60;;;25.60;63.80;;;;;;4996459;28;20920;-79
2022/06/16 11:54:46;;;;;;;6.32;2.72;;;25.60;63.10;;;;;;4991051;28;20038;-79
2022/06/16 11:57:38;;;;;;;5.25;2.70;;;25.60;62.70;;;;;;5012768;28;20049;-79
2022/06/16 12:00:14;;;;;;;4.47;2.50;;;25.40;63.00;;;;;;5006734;28;20041;-79
2022/06/16 12:03:07;;;;;;;7.03;2.78;;;25.20;63.00;;;;;;5008135;28;20406;-79
2022/06/16 12:05:58;;;;;;;5.80;2.95;;;25.10;64.00;;;;;;4966966;28;20062;-79
2022/06/16 12:08:37;;;;;;;4.40;2.65;;;25.10;63.80;;;;;;5011737;28;21058;-79
2022/06/16 12:11:10;;;;;;;6.15;2.45;;;24.80;63.90;;;;;;4994104;28;20491;-78
2022/06/16 12:13:47;;;;;;;6.82;3.03;;;24.70;64.60;;;;;;5007864;28;20065;-78
2022/06/16 12:16:25;;;;;;;6.22;2.80;;;24.70;65.10;;;;;;5010525;28;20088;-78
2022/06/16 12:19:17;;;;;;;8.00;3.38;;;24.60;63.70;;;;;;5001914;28;20042;-77
2022/06/16 12:21:45;;;;;;;8.15;3.42;;;24.40;64.50;;;;;;5010805;28;20030;-78
2022/06/16 12:24:16;;;;;;;6.00;2.67;;;24.40;65.30;;;;;;4993298;28;20046;-78
2022/06/16 12:26:51;;;;;;;;;;;24.40;66.20;;;;;;4987072;28;20034;-77
2022/06/16 12:29:25;;;;;;;5.00;3.05;;;24.40;66.70;;;;;;4997150;28;21217;-78
2022/06/16 12:32:17;;;;;;;7.15;2.90;;;24.30;65.90;;;;;;5008916;28;20042;-78
2022/06/16 12:34:43;;;;;;;5.53;2.67;;;24.40;67.00;;;;;;5008592;28;20348;-79
2022/06/16 12:37:14;;;;;;;3.97;2.60;;;24.60;66.50;;;;;;4994298;28;20091;-78
2022/06/16 12:40:06;;;;;;;4.35;2.53;;;25.00;66.60;;;;;;4986662;28;20046;-78
2022/06/16 12:42:38;;;;;;;4.03;2.40;;;25.10;65.80;;;;;;4980909;28;20046;-78
2022/06/16 12:45:12;;;;;;;5.22;2.85;;;25.00;65.20;;;;;;5009045;28;20041;-79
2022/06/16 12:47:40;;;;;;;4.93;2.70;;;24.90;65.40;;;;;;4990651;28;20038;-76
2022/06/16 12:50:13;;;;;;;5.00;2.55;;;24.80;65.70;;;;;;4990838;28;20550;-76
2022/06/16 12:52:48;;;;;;;4.93;2.55;;;24.80;66.30;;;;;;4998616;28;20049;-75
2022/06/16 12:55:15;;;;;;;5.85;2.55;;;25.00;66.70;;;;;;4997188;28;20061;-75
2022/06/16 12:57:49;;;;;;;6.38;2.72;;;25.20;65.70;;;;;;4977642;28;20045;-75
2022/06/16 13:00:18;;;;;;;5.68;2.55;;;25.30;64.30;;;;;;4998836;28;20107;-75
2022/06/16 13:02:50;;;;;;;4.65;2.75;;;25.30;63.90;;;;;;4990522;28;20076;-75
2022/06/16 13:05:19;;;;;;;5.75;2.65;;;25.20;63.90;;;;;;4991709;28;20092;-76
2022/06/16 13:07:49;;;;;;;5.35;2.47;;;25.00;64.40;;;;;;4989439;28;20038;-76
2022/06/16 13:10:15;;;;;;;5.70;2.53;;;24.80;65.00;;;;;;4993922;28;20037;-75
2022/06/16 13:12:49;;;;;;;7.22;2.47;;;24.60;64.90;;;;;;4985354;28;20423;-76
2022/06/16 13:15:35;;;;;;;5.03;2.40;;;24.40;64.50;;;;;;4985979;28;20503;-76
2022/06/16 13:18:20;;;;;;;5.15;2.70;;;24.30;64.40;;;;;;4992345;28;20080;-78
2022/06/16 13:20:51;;;;;;;6.55;3.05;;;24.10;64.30;;;;;;4974786;28;20104;-76
2022/06/16 13:23:29;;;;;;;6.68;2.58;;;23.90;65.10;;;;;;5014111;28;20057;-75
2022/06/16 13:26:06;;;;;;;5.82;2.60;;;23.80;65.70;;;;;;4986904;28;20514;-77
2022/06/16 13:28:39;;;;;;;3.13;2.45;;;23.70;66.70;;;;;;4993017;28;20044;-76